sensor_id;sensor_type;location;lat;lon;timestamp;temperature;humidity
55711;DHT22;41612;51.994;5.880;2023-05-10T10:55:19;18.30;68.50
55711;DHT22;41612;51.994;5.880;2023-05-10T11:02:49;17.80;69.20
55711;DHT22;41612;51.994;5.880;2023-05-10T11:40:04;18.50;66.80
55711;DHT22;41612;51.994;5.880;2023-05-10T11:50:50;19.40;63.90
55711;DHT22;41612;51.994;5.880;2023-05-10T11:53:26;19.30;64.30
55711;DHT22;41612;51.994;5.880;2023-05-10T11:58:37;19.30;64.70
55711;DHT22;41612;51.994;5.880;2023-05-10T12:20:16;20.70;61.50
55711;DHT22;41612;51.994;5.880;2023-05-10T12:22:46;21.10;60.00
55711;DHT22;41612;51.994;5.880;2023-05-10T12:25:12;21.40;59.20
55711;DHT22;41612;51.994;5.880;2023-05-10T12:27:38;21.40;59.10
55711;DHT22;41612;51.994;5.880;2023-05-10T12:30:07;21.20;58.60
55711;DHT22;41612;51.994;5.880;2023-05-10T12:32:40;20.90;59.70
55711;DHT22;41612;51.994;5.880;2023-05-10T12:35:07;20.70;60.90
55711;DHT22;41612;51.994;5.880;2023-05-10T12:37:35;20.50;61.20
55711;DHT22;41612;51.994;5.880;2023-05-10T12:40:08;20.40;62.00
55711;DHT22;41612;51.994;5.880;2023-05-10T12:42:35;20.40;62.40
55711;DHT22;41612;51.994;5.880;2023-05-10T12:45:02;20.50;62.20
55711;DHT22;41612;51.994;5.880;2023-05-10T12:47:28;20.60;61.40
55711;DHT22;41612;51.994;5.880;2023-05-10T12:50:01;20.70;61.30
55711;DHT22;41612;51.994;5.880;2023-05-10T13:01:12;21.80;58.10
55711;DHT22;41612;51.994;5.880;2023-05-10T14:23:56;17.30;73.70
55711;DHT22;41612;51.994;5.880;2023-05-10T14:26:22;17.40;73.50
55711;DHT22;41612;51.994;5.880;2023-05-10T14:36:48;17.70;73.10
55711;DHT22;41612;51.994;5.880;2023-05-10T14:39:14;17.60;73.00
55711;DHT22;41612;51.994;5.880;2023-05-10T14:41:39;17.60;73.20
55711;DHT22;41612;51.994;5.880;2023-05-10T14:44:10;17.70;73.20
55711;DHT22;41612;51.994;5.880;2023-05-10T14:46:36;17.80;72.90
55711;DHT22;41612;51.994;5.880;2023-05-10T14:51:57;17.90;72.30
55711;DHT22;41612;51.994;5.880;2023-05-10T14:59:40;18.40;71.10
55711;DHT22;41612;51.994;5.880;2023-05-10T15:02:07;18.60;70.30
55711;DHT22;41612;51.994;5.880;2023-05-10T15:04:33;18.80;69.60
55711;DHT22;41612;51.994;5.880;2023-05-10T15:06:59;19.00;68.70
55711;DHT22;41612;51.994;5.880;2023-05-10T15:09:25;19.10;68.30
55711;DHT22;41612;51.994;5.880;2023-05-10T15:11:53;19.20;68.10
55711;DHT22;41612;51.994;5.880;2023-05-10T15:17:12;19.30;67.30
55711;DHT22;41612;51.994;5.880;2023-05-10T15:19:38;19.30;67.40
55711;DHT22;41612;51.994;5.880;2023-05-10T15:22:06;19.20;67.70
55711;DHT22;41612;51.994;5.880;2023-05-10T15:27:35;19.00;68.20
55711;DHT22;41612;51.994;5.880;2023-05-10T15:30:06;18.90;68.40
55711;DHT22;41612;51.994;5.880;2023-05-10T15:32:32;18.90;68.30
55711;DHT22;41612;51.994;5.880;2023-05-10T15:34:58;18.80;68.50
55711;DHT22;41612;51.994;5.880;2023-05-10T15:37:27;18.80;68.80
55711;DHT22;41612;51.994;5.880;2023-05-10T15:40:11;18.70;69.00
55711;DHT22;41612;51.994;5.880;2023-05-10T15:42:37;18.70;69.30
55711;DHT22;41612;51.994;5.880;2023-05-10T15:45:03;18.50;69.60
55711;DHT22;41612;51.994;5.880;2023-05-10T15:47:30;18.50;69.80
55711;DHT22;41612;51.994;5.880;2023-05-10T15:49:56;18.50;69.90
55711;DHT22;41612;51.994;5.880;2023-05-10T15:52:21;18.40;69.10
55711;DHT22;41612;51.994;5.880;2023-05-10T15:57:29;18.20;69.60
55711;DHT22;41612;51.994;5.880;2023-05-10T15:59:54;18.20;69.90
55711;DHT22;41612;51.994;5.880;2023-05-10T16:16:52;18.50;69.80
55711;DHT22;41612;51.994;5.880;2023-05-10T16:22:04;18.60;68.80
55711;DHT22;41612;51.994;5.880;2023-05-10T16:24:32;18.70;69.00
55711;DHT22;41612;51.994;5.880;2023-05-10T16:26:59;18.70;67.70
55711;DHT22;41612;51.994;5.880;2023-05-10T16:29:33;18.70;68.70
55711;DHT22;41612;51.994;5.880;2023-05-10T16:40:28;19.30;67.50
55711;DHT22;41612;51.994;5.880;2023-05-10T16:51:08;19.60;66.30
55711;DHT22;41612;51.994;5.880;2023-05-10T16:53:34;19.50;66.30
55711;DHT22;41612;51.994;5.880;2023-05-10T16:56:00;19.50;66.20
55711;DHT22;41612;51.994;5.880;2023-05-10T16:58:26;19.40;66.40
55711;DHT22;41612;51.994;5.880;2023-05-10T17:00:52;19.40;66.60
55711;DHT22;41612;51.994;5.880;2023-05-10T17:03:17;19.30;66.90
55711;DHT22;41612;51.994;5.880;2023-05-10T17:05:43;19.20;67.20
55711;DHT22;41612;51.994;5.880;2023-05-10T17:08:09;19.00;67.70
55711;DHT22;41612;51.994;5.880;2023-05-10T17:10:38;18.90;68.30
55711;DHT22;41612;51.994;5.880;2023-05-10T17:13:04;18.80;68.60
55711;DHT22;41612;51.994;5.880;2023-05-10T17:15:29;18.70;69.00
55711;DHT22;41612;51.994;5.880;2023-05-10T17:17:55;18.60;69.20
55711;DHT22;41612;51.994;5.880;2023-05-10T17:20:25;18.60;69.50
55711;DHT22;41612;51.994;5.880;2023-05-10T17:22:50;18.50;69.80
55711;DHT22;41612;51.994;5.880;2023-05-10T17:25:16;18.40;70.00
55711;DHT22;41612;51.994;5.880;2023-05-10T17:27:42;18.40;70.30
55711;DHT22;41612;51.994;5.880;2023-05-10T17:30:08;18.30;70.60
55711;DHT22;41612;51.994;5.880;2023-05-10T17:32:34;18.20;70.90
55711;DHT22;41612;51.994;5.880;2023-05-10T17:35:01;18.10;71.20
55711;DHT22;41612;51.994;5.880;2023-05-10T17:37:29;18.00;71.40
55711;DHT22;41612;51.994;5.880;2023-05-10T17:39:55;17.90;71.70
55711;DHT22;41612;51.994;5.880;2023-05-10T17:42:20;17.90;71.70
55711;DHT22;41612;51.994;5.880;2023-05-10T17:44:46;17.80;72.10
55711;DHT22;41612;51.994;5.880;2023-05-10T17:47:12;17.70;72.40
55711;DHT22;41612;51.994;5.880;2023-05-10T17:49:37;17.70;72.60
55711;DHT22;41612;51.994;5.880;2023-05-10T17:52:04;17.60;72.80
55711;DHT22;41612;51.994;5.880;2023-05-10T17:54:30;17.60;73.00
55711;DHT22;41612;51.994;5.880;2023-05-10T18:02:21;17.60;73.00
55711;DHT22;41612;51.994;5.880;2023-05-10T18:04:48;17.50;73.10
55711;DHT22;41612;51.994;5.880;2023-05-10T18:07:17;17.50;73.20
55711;DHT22;41612;51.994;5.880;2023-05-10T18:09:43;17.50;73.30
